createdAt,value
2023-02-01T00:00:24.936Z,91.52
2023-02-01T00:02:51.468Z,90.68
2023-02-01T00:05:18.081Z,90.48
2023-02-01T00:07:46.029Z,91.21
2023-02-01T00:10:12.782Z,90.53
2023-02-01T00:12:39.469Z,89.96
2023-02-01T00:15:06.697Z,90.57
2023-02-01T00:17:33.220Z,90.70
2023-02-01T00:19:59.832Z,91.65
2023-02-01T00:22:26.438Z,91.66
2023-02-01T00:24:53.062Z,91.64
2023-02-01T00:27:19.692Z,92.21
2023-02-01T00:29:46.376Z,92.07
2023-02-01T00:32:13.084Z,91.50
2023-02-01T00:34:39.745Z,91.97
2023-02-01T00:37:06.364Z,92.34
2023-02-01T00:39:33.102Z,91.57
2023-02-01T00:42:01.222Z,91.80
2023-02-01T00:44:27.759Z,91.91
2023-02-01T00:46:54.385Z,92.06
2023-02-01T00:49:21.007Z,91.35
2023-02-01T00:51:47.579Z,91.22
2023-02-01T00:54:14.229Z,91.97
2023-02-01T00:56:40.887Z,91.78
2023-02-01T00:59:08.579Z,91.43
2023-02-01T01:01:35.243Z,91.65
2023-02-01T01:04:01.886Z,91.12
2023-02-01T01:06:32.466Z,90.95
2023-02-01T01:09:00.149Z,90.71
2023-02-01T01:11:30.790Z,91.36
2023-02-01T01:13:58.213Z,91.28
2023-02-01T01:16:25.624Z,92.24
2023-02-01T01:18:52.321Z,90.83
2023-02-01T01:21:19.056Z,90.57
2023-02-01T01:23:46.204Z,91.11
2023-02-01T01:26:17.763Z,91.19
2023-02-01T01:28:44.363Z,91.46
2023-02-01T01:31:15.239Z,91.67
2023-02-01T01:33:41.976Z,91.10
2023-02-01T01:36:09.253Z,90.68
2023-02-01T01:38:36.169Z,91.48
2023-02-01T01:41:02.859Z,91.16
2023-02-01T01:43:49.117Z,90.91
2023-02-01T01:46:19.998Z,90.66
2023-02-01T01:48:47.306Z,91.08
2023-02-01T01:51:14.064Z,90.50
2023-02-01T01:53:46.147Z,90.34
2023-02-01T01:56:13.046Z,90.63
2023-02-01T01:58:39.684Z,90.97
2023-02-01T02:01:06.537Z,91.26
2023-02-01T02:03:45.911Z,90.70
2023-02-01T02:06:43.363Z,91.13
2023-02-01T02:09:10.045Z,91.64
2023-02-01T02:11:36.703Z,91.62
2023-02-01T02:14:03.410Z,91.95
2023-02-01T02:16:45.178Z,90.99
2023-02-01T02:19:20.824Z,91.83
2023-02-01T02:22:11.913Z,92.30
2023-02-01T02:25:03.259Z,92.12
2023-02-01T02:27:57.757Z,91.69
2023-02-01T02:30:55.201Z,91.70
2023-02-01T02:33:59.253Z,91.84
2023-02-01T02:36:44.571Z,91.93
2023-02-01T02:39:41.198Z,92.48
2023-02-01T02:42:35.831Z,92.39
2023-02-01T02:45:21.082Z,92.57
2023-02-01T02:47:58.639Z,92.06
2023-02-01T02:51:08.600Z,92.32
2023-02-01T02:53:38.951Z,92.65
2023-02-01T02:56:06.489Z,91.87
2023-02-01T02:58:33.124Z,92.64
2023-02-01T03:00:59.767Z,91.91
2023-02-01T03:03:26.377Z,92.15
2023-02-01T03:05:53.134Z,91.31
2023-02-01T03:08:20.396Z,91.29
2023-02-01T03:11:05.739Z,91.79
2023-02-01T03:13:41.406Z,91.41
2023-02-01T03:16:08.714Z,92.46
2023-02-01T03:18:49.667Z,91.95
2023-02-01T03:21:27.434Z,91.92
2023-02-01T03:23:55.000Z,91.84
2023-02-01T03:26:22.739Z,92.16
2023-02-01T03:28:53.384Z,91.50
2023-02-01T03:31:20.134Z,91.08
2023-02-01T03:33:46.767Z,91.63
2023-02-01T03:36:21.887Z,92.01
2023-02-01T03:39:16.659Z,91.79
2023-02-01T03:41:54.204Z,91.13
2023-02-01T03:44:24.748Z,91.27
2023-02-01T03:47:01.205Z,91.02
2023-02-01T03:49:36.042Z,91.11
2023-02-01T03:52:02.710Z,91.67
2023-02-01T03:54:29.301Z,91.52
2023-02-01T03:56:57.765Z,91.29
2023-02-01T03:59:24.398Z,91.00
2023-02-01T04:01:51.223Z,90.74
2023-02-01T04:04:17.906Z,90.99
2023-02-01T04:06:44.457Z,90.49
2023-02-01T04:09:10.968Z,91.13
2023-02-01T04:11:37.599Z,90.69
2023-02-01T04:14:04.162Z,91.19
2023-02-01T04:16:32.065Z,90.52
2023-02-01T04:18:59.065Z,91.06
2023-02-01T04:21:29.048Z,90.78
2023-02-01T04:23:55.727Z,91.74
2023-02-01T04:26:22.496Z,91.29
2023-02-01T04:28:49.281Z,90.88
2023-02-01T04:31:16.752Z,90.81
2023-02-01T04:33:43.416Z,91.34
2023-02-01T04:36:10.121Z,90.33
2023-02-01T04:38:36.724Z,91.29
2023-02-01T04:41:03.339Z,90.58
2023-02-01T04:43:29.996Z,91.23
2023-02-01T04:45:56.876Z,91.13
2023-02-01T04:48:25.058Z,90.40
2023-02-01T04:50:51.890Z,89.98
2023-02-01T04:53:18.676Z,90.64
2023-02-01T04:55:45.368Z,90.86
2023-02-01T04:58:12.072Z,90.37
2023-02-01T05:00:38.814Z,90.36
2023-02-01T05:03:05.528Z,90.23
2023-02-01T05:05:32.102Z,90.60
2023-02-01T05:07:58.759Z,90.97
2023-02-01T05:10:25.516Z,90.65
2023-02-01T05:12:52.347Z,91.00
2023-02-01T05:15:18.987Z,91.00
2023-02-01T05:17:45.707Z,90.84
2023-02-01T05:20:12.363Z,90.95
2023-02-01T05:22:39.019Z,90.99
2023-02-01T05:25:08.215Z,90.46
2023-02-01T05:27:35.100Z,90.67
2023-02-01T05:30:02.391Z,89.85
2023-02-01T05:32:29.070Z,90.06
2023-02-01T05:34:55.733Z,91.09
2023-02-01T05:37:22.521Z,90.80
2023-02-01T05:39:49.118Z,90.45
2023-02-01T05:42:15.923Z,90.00
2023-02-01T05:44:42.555Z,89.67
2023-02-01T05:47:09.208Z,89.86
2023-02-01T05:49:35.800Z,90.52
2023-02-01T05:52:02.565Z,90.08
2023-02-01T05:54:29.221Z,90.19
2023-02-01T05:56:55.911Z,88.89
2023-02-01T05:59:22.578Z,89.71
2023-02-01T06:01:49.329Z,89.63
2023-02-01T06:04:15.931Z,89.45
2023-02-01T06:06:42.499Z,89.26
2023-02-01T06:09:09.156Z,90.04
2023-02-01T06:11:35.818Z,89.05
2023-02-01T06:14:02.494Z,88.96
2023-02-01T06:16:29.220Z,89.26
2023-02-01T06:18:56.007Z,88.73
2023-02-01T06:21:22.660Z,88.24
2023-02-01T06:23:49.253Z,89.01
2023-02-01T06:26:16.017Z,88.77
2023-02-01T06:28:42.625Z,89.59
2023-02-01T06:31:09.434Z,88.60
2023-02-01T06:33:36.442Z,89.07
2023-02-01T06:36:05.211Z,88.50
2023-02-01T06:38:31.809Z,88.25
2023-02-01T06:40:58.683Z,88.65
2023-02-01T06:43:25.795Z,88.73
2023-02-01T06:45:52.682Z,87.51
2023-02-01T06:48:19.407Z,88.39
2023-02-01T06:50:46.029Z,88.54
2023-02-01T06:53:12.646Z,88.29
2023-02-01T06:55:39.350Z,87.86
2023-02-01T06:58:06.195Z,88.11
2023-02-01T07:00:32.858Z,88.95
2023-02-01T07:02:59.405Z,88.95
2023-02-01T07:05:25.991Z,87.83
2023-02-01T07:07:52.578Z,88.31
2023-02-01T07:10:19.552Z,87.26
2023-02-01T07:12:46.141Z,87.68
2023-02-01T07:15:12.864Z,87.47
2023-02-01T07:17:39.424Z,88.33
2023-02-01T07:20:06.834Z,87.28
2023-02-01T07:22:33.545Z,87.95
2023-02-01T07:25:00.211Z,89.01
2023-02-01T07:27:26.823Z,88.22
2023-02-01T07:29:53.490Z,88.66
2023-02-01T07:32:21.067Z,88.56
2023-02-01T07:34:47.710Z,89.49
2023-02-01T07:37:14.560Z,90.04
2023-02-01T07:39:41.229Z,90.08
2023-02-01T07:42:07.885Z,90.58
2023-02-01T07:44:34.618Z,90.36
2023-02-01T07:47:01.317Z,91.15
2023-02-01T07:49:27.940Z,91.26
2023-02-01T07:51:54.643Z,91.23
2023-02-01T07:54:21.313Z,90.71
2023-02-01T07:56:47.986Z,91.02
2023-02-01T07:59:14.552Z,91.34
2023-02-01T08:01:41.176Z,92.20
2023-02-01T08:04:10.076Z,91.64
2023-02-01T08:06:36.638Z,91.93
2023-02-01T08:09:03.786Z,92.08
2023-02-01T08:11:30.702Z,92.43
2023-02-01T08:13:57.973Z,92.50
2023-02-01T08:16:24.879Z,91.76
2023-02-01T08:18:52.068Z,92.56
2023-02-01T08:21:20.688Z,92.15
2023-02-01T08:23:47.465Z,93.28
2023-02-01T08:26:19.678Z,93.56
2023-02-01T08:28:49.554Z,93.40
2023-02-01T08:31:17.369Z,94.28
2023-02-01T08:33:44.453Z,94.69
2023-02-01T08:36:11.579Z,95.15
2023-02-01T08:38:38.989Z,96.44
2023-02-01T08:41:09.863Z,96.29
2023-02-01T08:43:36.959Z,97.03
2023-02-01T08:46:04.706Z,96.86
2023-02-01T08:48:31.623Z,97.93
2023-02-01T08:50:58.329Z,97.54
2023-02-01T08:53:24.893Z,97.45
2023-02-01T08:55:51.483Z,97.99
2023-02-01T08:58:18.246Z,98.18
2023-02-01T09:00:45.297Z,99.49
2023-02-01T09:03:12.307Z,99.24
2023-02-01T09:05:49.153Z,99.17
2023-02-01T09:08:16.969Z,99.61
2023-02-01T09:10:43.742Z,99.46
2023-02-01T09:13:10.853Z,99.29
2023-02-01T09:15:38.397Z,99.59
2023-02-01T09:18:05.152Z,100.00
2023-02-01T09:20:31.817Z,100.00
2023-02-01T09:22:58.607Z,100.00
2023-02-01T09:25:25.919Z,100.00
2023-02-01T09:27:52.725Z,99.97
2023-02-01T09:30:19.452Z,100.00
2023-02-01T09:32:46.113Z,99.80
2023-02-01T09:35:12.821Z,99.84
2023-02-01T09:37:39.517Z,98.82
2023-02-01T09:40:06.649Z,98.04
2023-02-01T09:43:11.933Z,98.32
2023-02-01T09:45:51.695Z,98.59
2023-02-01T09:48:21.624Z,98.60
2023-02-01T09:50:56.366Z,98.64
2023-02-01T09:53:30.377Z,98.73
2023-02-01T09:56:19.591Z,97.32
2023-02-01T09:58:53.115Z,97.46
2023-02-01T10:01:21.558Z,97.21
2023-02-01T10:03:48.338Z,96.99
2023-02-01T10:06:31.645Z,96.51
2023-02-01T10:09:28.649Z,96.96
2023-02-01T10:12:05.780Z,96.17
2023-02-01T10:15:06.841Z,96.69
2023-02-01T10:17:33.351Z,96.00
2023-02-01T10:20:16.631Z,95.50
2023-02-01T10:23:16.068Z,96.07
2023-02-01T10:25:54.588Z,95.05
2023-02-01T10:28:21.503Z,94.57
2023-02-01T10:30:48.833Z,94.31
2023-02-01T10:33:23.106Z,95.04
2023-02-01T10:35:55.047Z,94.43
2023-02-01T10:38:27.344Z,93.84
2023-02-01T10:40:54.469Z,93.83
2023-02-01T10:43:21.140Z,93.51
2023-02-01T10:45:47.813Z,93.43
2023-02-01T10:48:14.579Z,92.85
2023-02-01T10:50:55.963Z,93.25
2023-02-01T10:53:29.731Z,93.05
2023-02-01T10:55:57.054Z,92.50
2023-02-01T10:58:28.824Z,92.21
2023-02-01T11:01:06.123Z,92.66
2023-02-01T11:03:38.676Z,91.88
2023-02-01T11:06:16.106Z,91.82
2023-02-01T11:09:02.363Z,92.39
2023-02-01T11:11:29.084Z,91.95
2023-02-01T11:14:00.285Z,92.14
2023-02-01T11:16:38.650Z,92.98
2023-02-01T11:19:06.012Z,93.05
2023-02-01T11:21:35.514Z,91.92
2023-02-01T11:24:05.625Z,91.31
2023-02-01T11:26:32.319Z,91.07
2023-02-01T11:29:06.581Z,91.95
2023-02-01T11:31:33.919Z,91.09
2023-02-01T11:34:09.554Z,89.95
2023-02-01T11:36:36.647Z,91.54
2023-02-01T11:39:25.394Z,91.48
2023-02-01T11:42:04.663Z,91.25
2023-02-01T11:44:39.555Z,91.24
2023-02-01T11:47:30.446Z,90.66
2023-02-01T11:50:00.809Z,91.10
2023-02-01T11:52:42.729Z,90.86
2023-02-01T11:55:18.057Z,91.76
2023-02-01T11:57:47.380Z,91.52
2023-02-01T12:00:37.542Z,90.72
2023-02-01T12:03:22.689Z,91.16
2023-02-01T12:06:07.929Z,90.62
2023-02-01T12:08:53.191Z,89.76
2023-02-01T12:11:22.736Z,88.66
2023-02-01T12:14:16.122Z,89.15
2023-02-01T12:16:43.892Z,89.04
2023-02-01T12:19:47.742Z,90.10
2023-02-01T12:22:16.279Z,90.88
2023-02-01T12:25:00.097Z,90.43
2023-02-01T12:27:52.208Z,90.96
2023-02-01T12:30:52.686Z,90.75
2023-02-01T12:33:32.102Z,91.70
2023-02-01T12:36:09.749Z,90.03
2023-02-01T12:38:54.618Z,90.65
2023-02-01T12:41:37.194Z,90.83
2023-02-01T12:44:22.537Z,91.40
2023-02-01T12:46:59.344Z,91.31
2023-02-01T12:49:47.614Z,92.14
2023-02-01T12:52:17.959Z,91.63
2023-02-01T12:55:04.731Z,92.17
2023-02-01T12:57:42.433Z,92.32
2023-02-01T13:00:24.282Z,92.74
2023-02-01T13:03:16.385Z,92.48
2023-02-01T13:06:00.063Z,92.16
2023-02-01T13:08:32.254Z,92.31
2023-02-01T13:11:05.793Z,91.11
2023-02-01T13:14:17.456Z,91.88
2023-02-01T13:16:59.591Z,91.55
2023-02-01T13:19:40.242Z,90.51
2023-02-01T13:22:10.705Z,90.88
2023-02-01T13:24:45.855Z,90.53
2023-02-01T13:27:13.814Z,89.24
2023-02-01T13:29:52.428Z,89.54
2023-02-01T13:33:51.598Z,90.29
2023-02-01T13:35:59.077Z,88.98
2023-02-01T13:38:39.734Z,89.49
2023-02-01T13:41:36.744Z,89.18
2023-02-01T13:44:11.897Z,89.64
2023-02-01T13:46:43.086Z,89.10
2023-02-01T13:49:35.454Z,89.04
2023-02-01T13:52:02.180Z,88.46
2023-02-01T13:54:38.444Z,88.41
2023-02-01T13:57:06.134Z,87.26
2023-02-01T13:59:41.965Z,87.31
2023-02-01T14:02:39.334Z,87.32
2023-02-01T14:05:09.235Z,87.09
2023-02-01T14:07:35.901Z,87.97
2023-02-01T14:10:40.276Z,88.13
2023-02-01T14:13:32.029Z,87.59
2023-02-01T14:16:04.607Z,87.52
2023-02-01T14:18:37.089Z,88.43
2023-02-01T14:21:26.601Z,88.77
2023-02-01T14:24:05.774Z,88.06
2023-02-01T14:26:35.708Z,88.10
2023-02-01T14:29:21.545Z,86.96
2023-02-01T14:32:01.639Z,86.37
2023-02-01T14:34:35.760Z,86.43
2023-02-01T14:37:05.090Z,86.05
2023-02-01T14:39:32.873Z,86.47
2023-02-01T14:42:02.821Z,85.75
2023-02-01T14:44:31.398Z,85.01
2023-02-01T14:47:10.406Z,85.38
2023-02-01T14:50:09.707Z,85.08
2023-02-01T14:52:53.983Z,85.70
2023-02-01T14:55:28.247Z,85.82
2023-02-01T14:57:56.035Z,85.61
2023-02-01T15:00:28.228Z,85.75
2023-02-01T15:02:55.845Z,85.00
2023-02-01T15:05:32.755Z,85.74
2023-02-01T15:08:30.734Z,84.61
2023-02-01T15:11:03.816Z,84.57
2023-02-01T15:13:30.511Z,84.60
2023-02-01T15:16:14.436Z,85.09
2023-02-01T15:18:44.122Z,85.23
2023-02-01T15:21:28.844Z,83.68
2023-02-01T15:24:30.589Z,84.00
2023-02-01T15:27:05.749Z,84.08
2023-02-01T15:29:34.983Z,83.77
2023-02-01T15:32:01.772Z,83.73
2023-02-01T15:34:48.627Z,83.29
2023-02-01T15:37:15.937Z,83.38
2023-02-01T15:40:10.391Z,82.82
2023-02-01T15:42:50.088Z,83.17
2023-02-01T15:45:20.962Z,83.32
2023-02-01T15:47:49.248Z,84.00
2023-02-01T15:50:17.469Z,83.54
2023-02-01T15:52:44.039Z,83.20
2023-02-01T15:55:20.715Z,83.34
2023-02-01T15:57:47.374Z,83.78
2023-02-01T16:00:22.928Z,82.90
2023-02-01T16:02:53.505Z,82.96
2023-02-01T16:05:37.180Z,83.00
2023-02-01T16:08:14.919Z,83.23
2023-02-01T16:10:45.671Z,83.57
2023-02-01T16:13:12.894Z,83.04
2023-02-01T16:15:39.719Z,82.82
2023-02-01T16:18:06.854Z,83.07
2023-02-01T16:20:33.493Z,82.91
2023-02-01T16:23:00.189Z,82.93
2023-02-01T16:25:26.834Z,82.49
2023-02-01T16:27:53.703Z,82.64
2023-02-01T16:30:20.558Z,82.53
2023-02-01T16:32:47.500Z,82.16
2023-02-01T16:35:22.784Z,82.39
2023-02-01T16:37:49.556Z,82.22
2023-02-01T16:40:16.964Z,82.87
2023-02-01T16:42:43.715Z,82.41
2023-02-01T16:45:10.519Z,82.55
2023-02-01T16:47:41.031Z,81.55
2023-02-01T16:50:22.708Z,81.46
2023-02-01T16:52:50.329Z,81.07
2023-02-01T16:55:18.123Z,82.25
2023-02-01T16:57:44.933Z,82.29
2023-02-01T17:00:23.869Z,82.03
2023-02-01T17:02:52.538Z,81.63
2023-02-01T17:05:19.338Z,82.12
2023-02-01T17:07:46.099Z,82.87
2023-02-01T17:10:32.647Z,82.76
2023-02-01T17:12:59.826Z,82.44
2023-02-01T17:15:28.620Z,82.00
2023-02-01T17:17:55.361Z,81.82
2023-02-01T17:20:24.649Z,81.96
2023-02-01T17:22:51.507Z,81.83
2023-02-01T17:25:18.941Z,81.94
2023-02-01T17:27:45.722Z,81.53
2023-02-01T17:30:13.284Z,81.39
2023-02-01T17:32:40.367Z,80.96
2023-02-01T17:35:16.682Z,80.43
2023-02-01T17:37:43.475Z,80.79
2023-02-01T17:40:11.461Z,80.30
2023-02-01T17:42:39.299Z,80.32
2023-02-01T17:45:49.586Z,80.47
2023-02-01T17:48:16.256Z,80.61
2023-02-01T17:50:43.173Z,80.88
2023-02-01T17:53:10.599Z,80.35
2023-02-01T17:55:38.386Z,80.58
2023-02-01T17:58:05.136Z,81.38
2023-02-01T18:00:31.927Z,80.83
2023-02-01T18:02:58.529Z,80.92
2023-02-01T18:05:28.487Z,80.80
2023-02-01T18:07:55.117Z,80.50
2023-02-01T18:10:22.097Z,81.20
2023-02-01T18:12:48.830Z,79.95
2023-02-01T18:15:16.485Z,80.29
2023-02-01T18:17:43.083Z,80.80
2023-02-01T18:20:14.236Z,81.00
2023-02-01T18:22:40.901Z,80.12
2023-02-01T18:25:21.026Z,80.30
2023-02-01T18:27:48.833Z,79.63
2023-02-01T18:30:15.681Z,79.98
2023-02-01T18:32:42.347Z,80.08
2023-02-01T18:35:23.596Z,80.02
2023-02-01T18:37:51.203Z,79.66
2023-02-01T18:40:29.012Z,80.57
2023-02-01T18:42:55.789Z,81.22
2023-02-01T18:45:32.381Z,79.54
2023-02-01T18:47:59.152Z,79.80
2023-02-01T18:50:26.074Z,80.41
2023-02-01T18:52:53.915Z,79.81
2023-02-01T18:55:20.644Z,79.60
2023-02-01T18:57:47.268Z,79.66
2023-02-01T19:00:14.453Z,79.45
2023-02-01T19:02:41.389Z,80.14
2023-02-01T19:05:08.804Z,80.14
2023-02-01T19:07:36.112Z,79.38
2023-02-01T19:10:03.964Z,79.47
2023-02-01T19:12:30.703Z,80.08
2023-02-01T19:14:57.265Z,79.24
2023-02-01T19:17:23.901Z,79.76
2023-02-01T19:19:50.517Z,79.48
2023-02-01T19:22:17.839Z,79.55
2023-02-01T19:24:44.543Z,80.33
2023-02-01T19:27:11.324Z,79.48
2023-02-01T19:29:38.176Z,79.41
2023-02-01T19:32:05.468Z,78.98
2023-02-01T19:34:32.064Z,79.57
2023-02-01T19:36:58.801Z,79.35
2023-02-01T19:39:25.396Z,78.82
2023-02-01T19:41:54.820Z,79.62
2023-02-01T19:44:21.691Z,78.86
2023-02-01T19:46:54.609Z,78.93
2023-02-01T19:49:21.481Z,78.84
2023-02-01T19:51:48.158Z,79.41
2023-02-01T19:54:15.274Z,79.46
2023-02-01T19:56:42.096Z,78.91
2023-02-01T19:59:11.157Z,78.88
2023-02-01T20:01:37.032Z,79.07
2023-02-01T20:04:06.988Z,78.65
2023-02-01T20:06:41.828Z,78.82
2023-02-01T20:09:11.474Z,79.88
2023-02-01T20:11:38.301Z,79.54
2023-02-01T20:14:07.922Z,79.78
2023-02-01T20:16:34.601Z,78.17
2023-02-01T20:19:01.359Z,78.52
2023-02-01T20:21:27.919Z,78.78
2023-02-01T20:23:54.590Z,78.66
2023-02-01T20:26:22.530Z,78.06
2023-02-01T20:28:49.484Z,78.97
2023-02-01T20:31:16.153Z,78.79
2023-02-01T20:33:51.932Z,78.14
2023-02-01T20:36:34.308Z,77.94
2023-02-01T20:39:01.236Z,78.50
2023-02-01T20:41:27.959Z,78.34
2023-02-01T20:43:54.807Z,77.98
2023-02-01T20:46:22.049Z,78.60
2023-02-01T20:48:50.475Z,78.01
2023-02-01T20:51:19.091Z,77.25
2023-02-01T20:53:45.738Z,78.02
2023-02-01T20:56:12.479Z,78.04
2023-02-01T20:58:39.255Z,78.15
2023-02-01T21:01:07.044Z,78.31
2023-02-01T21:03:33.969Z,77.42
2023-02-01T21:06:00.747Z,78.17
2023-02-01T21:08:27.805Z,79.05
2023-02-01T21:10:59.784Z,79.60
2023-02-01T21:13:27.143Z,78.54
2023-02-01T21:15:53.857Z,79.63
2023-02-01T21:18:20.525Z,78.77
2023-02-01T21:20:47.250Z,79.60
2023-02-01T21:23:14.485Z,80.01
2023-02-01T21:25:41.564Z,79.97
2023-02-01T21:28:08.171Z,80.54
2023-02-01T21:30:35.085Z,81.22
2023-02-01T21:33:01.790Z,81.55
2023-02-01T21:35:28.546Z,82.68
2023-02-01T21:37:55.191Z,82.91
2023-02-01T21:40:21.694Z,84.17
2023-02-01T21:42:48.271Z,85.26
2023-02-01T21:45:15.800Z,85.10
2023-02-01T21:47:42.669Z,85.22
2023-02-01T21:50:14.023Z,84.73
2023-02-01T21:52:40.745Z,84.41
2023-02-01T21:55:08.006Z,84.58
2023-02-01T21:57:34.686Z,84.24
2023-02-01T22:00:01.326Z,83.64
2023-02-01T22:02:28.167Z,83.65
2023-02-01T22:04:54.980Z,84.17
2023-02-01T22:07:21.593Z,85.80
2023-02-01T22:09:48.162Z,86.85
2023-02-01T22:12:15.026Z,87.35
2023-02-01T22:14:41.746Z,86.56
2023-02-01T22:17:08.326Z,86.46
2023-02-01T22:19:34.952Z,86.95
2023-02-01T22:22:01.665Z,87.07
2023-02-01T22:24:28.168Z,85.91
2023-02-01T22:26:54.808Z,85.29
2023-02-01T22:29:21.504Z,84.27
2023-02-01T22:31:48.290Z,84.43
2023-02-01T22:34:14.995Z,84.37
2023-02-01T22:36:41.651Z,83.64
2023-02-01T22:39:08.573Z,84.26
2023-02-01T22:41:35.120Z,83.79
2023-02-01T22:44:01.780Z,83.81
2023-02-01T22:46:28.897Z,83.90
2023-02-01T22:48:55.514Z,83.56
2023-02-01T22:51:32.207Z,82.40
2023-02-01T22:53:58.925Z,82.58
2023-02-01T22:56:27.153Z,82.81
2023-02-01T22:58:55.367Z,83.50
2023-02-01T23:01:22.072Z,83.31
2023-02-01T23:03:48.796Z,84.34
2023-02-01T23:06:15.700Z,85.37
2023-02-01T23:08:42.411Z,84.71
2023-02-01T23:11:09.768Z,84.50
2023-02-01T23:13:36.859Z,84.69
2023-02-01T23:16:08.607Z,83.40
2023-02-01T23:18:35.337Z,83.97
2023-02-01T23:21:06.325Z,83.54
2023-02-01T23:23:33.078Z,83.28
2023-02-01T23:25:59.688Z,83.66
2023-02-01T23:28:26.972Z,83.65
2023-02-01T23:30:53.711Z,83.95
2023-02-01T23:33:27.104Z,83.34
2023-02-01T23:35:57.564Z,83.51
2023-02-01T23:38:24.696Z,84.16
2023-02-01T23:40:52.288Z,83.96
2023-02-01T23:43:18.997Z,84.29
2023-02-01T23:45:45.590Z,84.39
2023-02-01T23:48:12.201Z,85.13
2023-02-01T23:50:38.739Z,84.87
2023-02-01T23:53:05.383Z,84.94
2023-02-01T23:55:32.019Z,84.71
2023-02-01T23:57:58.601Z,83.80
